sensor_id;sensor_type;location;lat;lon;timestamp;P1;durP1;ratioP1;P2;durP2;ratioP2
42124;SDS011;27787;44.594;11.046;2024-03-02T00:01:33;12.93;;;6.20;;
42124;SDS011;27787;44.594;11.046;2024-03-02T00:04:17;10.60;;;5.10;;
42124;SDS011;27787;44.594;11.046;2024-03-02T00:07:01;9.90;;;5.82;;
42124;SDS011;27787;44.594;11.046;2024-03-02T00:09:46;13.23;;;6.10;;
42124;SDS011;27787;44.594;11.046;2024-03-02T00:12:30;14.20;;;6.18;;
42124;SDS011;27787;44.594;11.046;2024-03-02T00:18:11;14.73;;;6.38;;
42124;SDS011;27787;44.594;11.046;2024-03-02T00:20:57;12.05;;;6.50;;
42124;SDS011;27787;44.594;11.046;2024-03-02T00:23:41;10.30;;;5.73;;
42124;SDS011;27787;44.594;11.046;2024-03-02T00:26:26;10.15;;;6.68;;
42124;SDS011;27787;44.594;11.046;2024-03-02T00:29:10;9.73;;;5.57;;
42124;SDS011;27787;44.594;11.046;2024-03-02T00:31:59;13.07;;;6.40;;
42124;SDS011;27787;44.594;11.046;2024-03-02T00:34:45;10.55;;;6.38;;
42124;SDS011;27787;44.594;11.046;2024-03-02T00:37:29;10.98;;;5.72;;
42124;SDS011;27787;44.594;11.046;2024-03-02T00:40:13;9.65;;;5.30;;
42124;SDS011;27787;44.594;11.046;2024-03-02T00:42:58;11.48;;;5.63;;
42124;SDS011;27787;44.594;11.046;2024-03-02T00:45:42;9.75;;;5.68;;
42124;SDS011;27787;44.594;11.046;2024-03-02T00:48:27;8.30;;;5.25;;
42124;SDS011;27787;44.594;11.046;2024-03-02T00:51:11;15.93;;;6.15;;
42124;SDS011;27787;44.594;11.046;2024-03-02T00:53:57;10.32;;;5.25;;
42124;SDS011;27787;44.594;11.046;2024-03-02T00:56:43;8.70;;;5.03;;
42124;SDS011;27787;44.594;11.046;2024-03-02T00:59:27;8.40;;;5.30;;
42124;SDS011;27787;44.594;11.046;2024-03-02T01:02:11;13.85;;;5.50;;
42124;SDS011;27787;44.594;11.046;2024-03-02T01:04:55;8.40;;;4.75;;
42124;SDS011;27787;44.594;11.046;2024-03-02T01:07:39;9.85;;;5.20;;
42124;SDS011;27787;44.594;11.046;2024-03-02T01:10:23;10.65;;;5.88;;
42124;SDS011;27787;44.594;11.046;2024-03-02T01:13:10;9.50;;;5.60;;
42124;SDS011;27787;44.594;11.046;2024-03-02T01:15:54;9.27;;;5.35;;
42124;SDS011;27787;44.594;11.046;2024-03-02T01:18:38;10.02;;;5.53;;
42124;SDS011;27787;44.594;11.046;2024-03-02T01:21:23;8.98;;;5.53;;
42124;SDS011;27787;44.594;11.046;2024-03-02T01:24:07;12.77;;;6.22;;
42124;SDS011;27787;44.594;11.046;2024-03-02T01:26:52;9.75;;;5.70;;
42124;SDS011;27787;44.594;11.046;2024-03-02T01:29:36;10.43;;;6.07;;
42124;SDS011;27787;44.594;11.046;2024-03-02T01:32:20;12.57;;;6.88;;
42124;SDS011;27787;44.594;11.046;2024-03-02T01:35:05;12.18;;;5.72;;
42124;SDS011;27787;44.594;11.046;2024-03-02T01:37:50;12.90;;;5.75;;
42124;SDS011;27787;44.594;11.046;2024-03-02T01:40:35;13.27;;;6.28;;
42124;SDS011;27787;44.594;11.046;2024-03-02T01:43:20;13.48;;;6.55;;
42124;SDS011;27787;44.594;11.046;2024-03-02T01:46:05;11.73;;;6.00;;
42124;SDS011;27787;44.594;11.046;2024-03-02T01:48:49;9.68;;;6.05;;
42124;SDS011;27787;44.594;11.046;2024-03-02T01:51:33;12.77;;;7.30;;
42124;SDS011;27787;44.594;11.046;2024-03-02T01:54:18;11.18;;;5.93;;
42124;SDS011;27787;44.594;11.046;2024-03-02T01:57:02;10.18;;;6.32;;
42124;SDS011;27787;44.594;11.046;2024-03-02T01:59:46;8.50;;;5.80;;
42124;SDS011;27787;44.594;11.046;2024-03-02T02:02:34;13.18;;;6.38;;
42124;SDS011;27787;44.594;11.046;2024-03-02T02:05:19;12.23;;;6.55;;
42124;SDS011;27787;44.594;11.046;2024-03-02T02:08:03;9.90;;;5.82;;
42124;SDS011;27787;44.594;11.046;2024-03-02T02:10:48;13.68;;;6.40;;
42124;SDS011;27787;44.594;11.046;2024-03-02T02:13:32;9.63;;;5.75;;
42124;SDS011;27787;44.594;11.046;2024-03-02T02:16:16;9.65;;;6.18;;
42124;SDS011;27787;44.594;11.046;2024-03-02T02:19:00;14.40;;;6.18;;
42124;SDS011;27787;44.594;11.046;2024-03-02T02:21:44;12.70;;;7.38;;
42124;SDS011;27787;44.594;11.046;2024-03-02T02:24:29;14.90;;;6.18;;
42124;SDS011;27787;44.594;11.046;2024-03-02T02:27:13;17.75;;;7.18;;
42124;SDS011;27787;44.594;11.046;2024-03-02T02:29:59;15.10;;;6.25;;
42124;SDS011;27787;44.594;11.046;2024-03-02T02:32:45;12.02;;;5.93;;
42124;SDS011;27787;44.594;11.046;2024-03-02T02:35:29;10.57;;;6.40;;
42124;SDS011;27787;44.594;11.046;2024-03-02T02:38:14;14.27;;;5.60;;
42124;SDS011;27787;44.594;11.046;2024-03-02T02:40:58;11.00;;;4.85;;
42124;SDS011;27787;44.594;11.046;2024-03-02T02:43:41;14.07;;;5.55;;
42124;SDS011;27787;44.594;11.046;2024-03-02T02:46:25;11.25;;;4.88;;
42124;SDS011;27787;44.594;11.046;2024-03-02T02:49:10;9.15;;;5.22;;
42124;SDS011;27787;44.594;11.046;2024-03-02T02:51:54;12.68;;;5.45;;
42124;SDS011;27787;44.594;11.046;2024-03-02T02:54:38;10.80;;;5.07;;
42124;SDS011;27787;44.594;11.046;2024-03-02T02:57:21;13.02;;;4.32;;
42124;SDS011;27787;44.594;11.046;2024-03-02T03:00:06;9.60;;;4.90;;
42124;SDS011;27787;44.594;11.046;2024-03-02T03:02:54;11.30;;;5.70;;
42124;SDS011;27787;44.594;11.046;2024-03-02T03:05:38;12.02;;;5.03;;
42124;SDS011;27787;44.594;11.046;2024-03-02T03:08:22;8.75;;;4.95;;
42124;SDS011;27787;44.594;11.046;2024-03-02T03:11:07;10.25;;;5.32;;
42124;SDS011;27787;44.594;11.046;2024-03-02T03:13:52;12.73;;;5.07;;
42124;SDS011;27787;44.594;11.046;2024-03-02T03:16:38;14.70;;;4.70;;
42124;SDS011;27787;44.594;11.046;2024-03-02T03:19:22;10.27;;;5.40;;
42124;SDS011;27787;44.594;11.046;2024-03-02T03:22:06;14.27;;;5.95;;
42124;SDS011;27787;44.594;11.046;2024-03-02T03:24:50;11.77;;;6.05;;
42124;SDS011;27787;44.594;11.046;2024-03-02T03:27:35;9.57;;;4.93;;
42124;SDS011;27787;44.594;11.046;2024-03-02T03:30:19;15.00;;;5.50;;
42124;SDS011;27787;44.594;11.046;2024-03-02T03:33:04;13.05;;;5.18;;
42124;SDS011;27787;44.594;11.046;2024-03-02T03:35:51;13.27;;;5.60;;
42124;SDS011;27787;44.594;11.046;2024-03-02T03:38:36;12.55;;;5.07;;
42124;SDS011;27787;44.594;11.046;2024-03-02T03:41:20;13.98;;;4.82;;
42124;SDS011;27787;44.594;11.046;2024-03-02T03:44:04;8.93;;;4.63;;
42124;SDS011;27787;44.594;11.046;2024-03-02T03:46:48;10.65;;;4.78;;
42124;SDS011;27787;44.594;11.046;2024-03-02T03:49:32;13.90;;;5.13;;
42124;SDS011;27787;44.594;11.046;2024-03-02T03:52:16;12.20;;;4.90;;
42124;SDS011;27787;44.594;11.046;2024-03-02T03:55:01;13.13;;;4.40;;
42124;SDS011;27787;44.594;11.046;2024-03-02T03:57:45;13.30;;;4.70;;
42124;SDS011;27787;44.594;11.046;2024-03-02T04:00:29;13.13;;;4.65;;
42124;SDS011;27787;44.594;11.046;2024-03-02T04:03:13;9.77;;;4.70;;
42124;SDS011;27787;44.594;11.046;2024-03-02T04:05:57;10.27;;;4.85;;
42124;SDS011;27787;44.594;11.046;2024-03-02T04:08:41;11.55;;;4.65;;
42124;SDS011;27787;44.594;11.046;2024-03-02T04:11:25;9.88;;;5.25;;
42124;SDS011;27787;44.594;11.046;2024-03-02T04:14:10;18.15;;;4.72;;
42124;SDS011;27787;44.594;11.046;2024-03-02T04:16:54;9.50;;;4.20;;
42124;SDS011;27787;44.594;11.046;2024-03-02T04:19:39;12.57;;;4.57;;
42124;SDS011;27787;44.594;11.046;2024-03-02T04:22:24;9.65;;;4.32;;
42124;SDS011;27787;44.594;11.046;2024-03-02T04:25:07;13.55;;;4.55;;
42124;SDS011;27787;44.594;11.046;2024-03-02T04:27:53;13.10;;;4.68;;
42124;SDS011;27787;44.594;11.046;2024-03-02T04:30:37;14.20;;;4.38;;
42124;SDS011;27787;44.594;11.046;2024-03-02T04:33:21;10.45;;;4.32;;
42124;SDS011;27787;44.594;11.046;2024-03-02T04:36:05;13.50;;;4.00;;
42124;SDS011;27787;44.594;11.046;2024-03-02T04:38:53;10.02;;;4.40;;
42124;SDS011;27787;44.594;11.046;2024-03-02T04:41:37;11.32;;;4.15;;
42124;SDS011;27787;44.594;11.046;2024-03-02T04:44:21;11.27;;;4.25;;
42124;SDS011;27787;44.594;11.046;2024-03-02T04:47:05;6.72;;;4.15;;
42124;SDS011;27787;44.594;11.046;2024-03-02T04:49:49;14.57;;;5.53;;
42124;SDS011;27787;44.594;11.046;2024-03-02T04:52:34;10.38;;;4.38;;
42124;SDS011;27787;44.594;11.046;2024-03-02T04:55:18;11.82;;;4.85;;
42124;SDS011;27787;44.594;11.046;2024-03-02T04:58:02;10.88;;;4.93;;
42124;SDS011;27787;44.594;11.046;2024-03-02T05:00:46;11.82;;;4.80;;
42124;SDS011;27787;44.594;11.046;2024-03-02T05:03:30;10.18;;;4.60;;
42124;SDS011;27787;44.594;11.046;2024-03-02T05:06:14;11.07;;;5.22;;
42124;SDS011;27787;44.594;11.046;2024-03-02T05:08:59;12.15;;;4.90;;
42124;SDS011;27787;44.594;11.046;2024-03-02T05:11:43;11.68;;;5.00;;
42124;SDS011;27787;44.594;11.046;2024-03-02T05:14:43;10.15;;;4.85;;
42124;SDS011;27787;44.594;11.046;2024-03-02T05:17:27;13.80;;;5.57;;
42124;SDS011;27787;44.594;11.046;2024-03-02T05:20:11;12.35;;;5.05;;
42124;SDS011;27787;44.594;11.046;2024-03-02T05:22:56;12.32;;;5.50;;
42124;SDS011;27787;44.594;11.046;2024-03-02T05:25:40;13.13;;;5.82;;
42124;SDS011;27787;44.594;11.046;2024-03-02T05:28:23;13.65;;;5.53;;
42124;SDS011;27787;44.594;11.046;2024-03-02T05:31:11;10.10;;;5.35;;
42124;SDS011;27787;44.594;11.046;2024-03-02T05:33:55;12.52;;;5.90;;
42124;SDS011;27787;44.594;11.046;2024-03-02T05:36:40;9.57;;;5.78;;
42124;SDS011;27787;44.594;11.046;2024-03-02T05:39:24;7.13;;;4.93;;
42124;SDS011;27787;44.594;11.046;2024-03-02T05:42:08;11.38;;;5.25;;
42124;SDS011;27787;44.594;11.046;2024-03-02T05:44:52;14.15;;;4.95;;
42124;SDS011;27787;44.594;11.046;2024-03-02T05:47:37;11.68;;;5.65;;
42124;SDS011;27787;44.594;11.046;2024-03-02T05:50:22;14.07;;;5.63;;
42124;SDS011;27787;44.594;11.046;2024-03-02T05:53:06;9.48;;;5.65;;
42124;SDS011;27787;44.594;11.046;2024-03-02T05:55:50;10.75;;;5.32;;
42124;SDS011;27787;44.594;11.046;2024-03-02T05:58:38;14.60;;;5.95;;
42124;SDS011;27787;44.594;11.046;2024-03-02T06:01:42;7.95;;;5.10;;
42124;SDS011;27787;44.594;11.046;2024-03-02T06:04:27;9.27;;;5.15;;
42124;SDS011;27787;44.594;11.046;2024-03-02T06:07:11;10.57;;;5.63;;
42124;SDS011;27787;44.594;11.046;2024-03-02T06:09:55;13.25;;;6.13;;
42124;SDS011;27787;44.594;11.046;2024-03-02T06:12:39;10.60;;;5.30;;
42124;SDS011;27787;44.594;11.046;2024-03-02T06:15:23;10.52;;;5.20;;
42124;SDS011;27787;44.594;11.046;2024-03-02T06:18:06;8.57;;;5.38;;
42124;SDS011;27787;44.594;11.046;2024-03-02T06:20:51;10.02;;;5.28;;
42124;SDS011;27787;44.594;11.046;2024-03-02T06:23:35;9.75;;;5.47;;
42124;SDS011;27787;44.594;11.046;2024-03-02T06:26:19;10.85;;;5.45;;
42124;SDS011;27787;44.594;11.046;2024-03-02T06:29:04;9.48;;;5.20;;
42124;SDS011;27787;44.594;11.046;2024-03-02T06:31:48;9.75;;;5.75;;
42124;SDS011;27787;44.594;11.046;2024-03-02T06:34:32;10.25;;;4.90;;
42124;SDS011;27787;44.594;11.046;2024-03-02T06:37:16;8.82;;;5.40;;
42124;SDS011;27787;44.594;11.046;2024-03-02T06:40:00;9.50;;;5.70;;
42124;SDS011;27787;44.594;11.046;2024-03-02T06:42:44;13.95;;;5.97;;
42124;SDS011;27787;44.594;11.046;2024-03-02T06:45:29;11.30;;;5.63;;
42124;SDS011;27787;44.594;11.046;2024-03-02T06:48:14;12.18;;;5.80;;
42124;SDS011;27787;44.594;11.046;2024-03-02T06:51:02;13.10;;;5.10;;
42124;SDS011;27787;44.594;11.046;2024-03-02T06:53:46;10.07;;;6.07;;
42124;SDS011;27787;44.594;11.046;2024-03-02T06:56:34;11.70;;;5.22;;
42124;SDS011;27787;44.594;11.046;2024-03-02T06:59:18;11.75;;;5.20;;
42124;SDS011;27787;44.594;11.046;2024-03-02T07:02:02;9.02;;;5.20;;
42124;SDS011;27787;44.594;11.046;2024-03-02T07:04:47;11.20;;;5.30;;
42124;SDS011;27787;44.594;11.046;2024-03-02T07:07:31;10.48;;;5.88;;
42124;SDS011;27787;44.594;11.046;2024-03-02T07:10:15;9.10;;;5.70;;
42124;SDS011;27787;44.594;11.046;2024-03-02T07:12:59;11.15;;;5.28;;
42124;SDS011;27787;44.594;11.046;2024-03-02T07:15:44;8.80;;;5.40;;
42124;SDS011;27787;44.594;11.046;2024-03-02T07:19:03;8.73;;;5.38;;
42124;SDS011;27787;44.594;11.046;2024-03-02T07:21:47;13.02;;;5.65;;
42124;SDS011;27787;44.594;11.046;2024-03-02T07:24:38;10.98;;;5.65;;
42124;SDS011;27787;44.594;11.046;2024-03-02T07:27:26;9.82;;;4.65;;
42124;SDS011;27787;44.594;11.046;2024-03-02T07:30:13;9.48;;;5.18;;
42124;SDS011;27787;44.594;11.046;2024-03-02T07:32:59;7.35;;;4.95;;
42124;SDS011;27787;44.594;11.046;2024-03-02T07:35:43;8.77;;;4.93;;
42124;SDS011;27787;44.594;11.046;2024-03-02T07:38:27;11.00;;;5.53;;
42124;SDS011;27787;44.594;11.046;2024-03-02T07:41:12;10.50;;;5.60;;
42124;SDS011;27787;44.594;11.046;2024-03-02T07:43:56;10.85;;;4.93;;
42124;SDS011;27787;44.594;11.046;2024-03-02T07:46:43;8.02;;;5.63;;
42124;SDS011;27787;44.594;11.046;2024-03-02T07:49:28;16.35;;;5.63;;
42124;SDS011;27787;44.594;11.046;2024-03-02T07:52:12;8.30;;;5.65;;
42124;SDS011;27787;44.594;11.046;2024-03-02T07:54:56;8.35;;;4.82;;
42124;SDS011;27787;44.594;11.046;2024-03-02T07:57:40;7.90;;;4.70;;
42124;SDS011;27787;44.594;11.046;2024-03-02T08:00:25;8.10;;;4.85;;
42124;SDS011;27787;44.594;11.046;2024-03-02T08:03:10;8.23;;;4.40;;
42124;SDS011;27787;44.594;11.046;2024-03-02T08:05:54;9.03;;;4.23;;
42124;SDS011;27787;44.594;11.046;2024-03-02T08:08:39;7.35;;;4.88;;
42124;SDS011;27787;44.594;11.046;2024-03-02T08:11:23;11.35;;;5.13;;
42124;SDS011;27787;44.594;11.046;2024-03-02T08:14:07;10.43;;;4.38;;
42124;SDS011;27787;44.594;11.046;2024-03-02T08:16:51;12.63;;;4.55;;
42124;SDS011;27787;44.594;11.046;2024-03-02T08:19:36;7.78;;;4.65;;
42124;SDS011;27787;44.594;11.046;2024-03-02T08:22:21;8.85;;;4.00;;
42124;SDS011;27787;44.594;11.046;2024-03-02T08:25:05;7.28;;;4.15;;
42124;SDS011;27787;44.594;11.046;2024-03-02T08:27:53;7.18;;;4.35;;
42124;SDS011;27787;44.594;11.046;2024-03-02T08:30:37;6.32;;;4.45;;
42124;SDS011;27787;44.594;11.046;2024-03-02T08:33:21;8.63;;;3.92;;
42124;SDS011;27787;44.594;11.046;2024-03-02T08:36:06;5.63;;;3.58;;
42124;SDS011;27787;44.594;11.046;2024-03-02T08:38:51;5.68;;;4.00;;
42124;SDS011;27787;44.594;11.046;2024-03-02T08:41:35;6.13;;;3.63;;
42124;SDS011;27787;44.594;11.046;2024-03-02T08:44:19;4.82;;;3.10;;
42124;SDS011;27787;44.594;11.046;2024-03-02T08:47:03;8.35;;;4.15;;
42124;SDS011;27787;44.594;11.046;2024-03-02T08:49:48;5.75;;;3.28;;
42124;SDS011;27787;44.594;11.046;2024-03-02T08:52:32;5.82;;;3.63;;
42124;SDS011;27787;44.594;11.046;2024-03-02T08:55:16;4.93;;;3.25;;
42124;SDS011;27787;44.594;11.046;2024-03-02T08:58:00;6.97;;;3.72;;
42124;SDS011;27787;44.594;11.046;2024-03-02T09:00:47;6.55;;;3.45;;
42124;SDS011;27787;44.594;11.046;2024-03-02T09:03:31;8.57;;;3.83;;
42124;SDS011;27787;44.594;11.046;2024-03-02T09:06:17;6.53;;;3.45;;
42124;SDS011;27787;44.594;11.046;2024-03-02T09:09:01;7.50;;;4.35;;
42124;SDS011;27787;44.594;11.046;2024-03-02T09:11:46;5.63;;;3.05;;
42124;SDS011;27787;44.594;11.046;2024-03-02T09:14:31;7.25;;;3.40;;
42124;SDS011;27787;44.594;11.046;2024-03-02T09:17:15;11.27;;;3.20;;
42124;SDS011;27787;44.594;11.046;2024-03-02T09:19:59;8.10;;;3.67;;
42124;SDS011;27787;44.594;11.046;2024-03-02T09:22:43;7.18;;;3.72;;
42124;SDS011;27787;44.594;11.046;2024-03-02T09:25:28;6.32;;;3.60;;
42124;SDS011;27787;44.594;11.046;2024-03-02T09:28:11;7.40;;;3.90;;
42124;SDS011;27787;44.594;11.046;2024-03-02T09:30:56;5.30;;;3.55;;
42124;SDS011;27787;44.594;11.046;2024-03-02T09:33:40;7.68;;;4.13;;
42124;SDS011;27787;44.594;11.046;2024-03-02T09:36:25;8.90;;;3.83;;
42124;SDS011;27787;44.594;11.046;2024-03-02T09:39:09;6.57;;;3.53;;
42124;SDS011;27787;44.594;11.046;2024-03-02T09:41:53;5.07;;;3.20;;
42124;SDS011;27787;44.594;11.046;2024-03-02T09:44:38;6.13;;;3.40;;
42124;SDS011;27787;44.594;11.046;2024-03-02T09:47:22;6.03;;;3.58;;
42124;SDS011;27787;44.594;11.046;2024-03-02T09:50:07;8.60;;;4.07;;
42124;SDS011;27787;44.594;11.046;2024-03-02T09:52:51;5.65;;;3.40;;
42124;SDS011;27787;44.594;11.046;2024-03-02T09:55:36;6.65;;;4.00;;
42124;SDS011;27787;44.594;11.046;2024-03-02T09:58:20;4.75;;;3.38;;
42124;SDS011;27787;44.594;11.046;2024-03-02T10:01:06;5.53;;;3.92;;
42124;SDS011;27787;44.594;11.046;2024-03-02T10:03:50;5.70;;;3.60;;
42124;SDS011;27787;44.594;11.046;2024-03-02T10:06:35;5.00;;;3.58;;
42124;SDS011;27787;44.594;11.046;2024-03-02T10:09:26;8.35;;;4.05;;
42124;SDS011;27787;44.594;11.046;2024-03-02T10:12:13;5.93;;;3.70;;
42124;SDS011;27787;44.594;11.046;2024-03-02T10:15:03;6.47;;;4.03;;
42124;SDS011;27787;44.594;11.046;2024-03-02T10:17:51;5.30;;;3.58;;
42124;SDS011;27787;44.594;11.046;2024-03-02T10:20:35;5.15;;;3.58;;
42124;SDS011;27787;44.594;11.046;2024-03-02T10:23:19;7.50;;;3.83;;
42124;SDS011;27787;44.594;11.046;2024-03-02T10:26:11;6.30;;;3.37;;
42124;SDS011;27787;44.594;11.046;2024-03-02T10:29:01;5.10;;;3.65;;
42124;SDS011;27787;44.594;11.046;2024-03-02T10:31:46;6.53;;;3.75;;
42124;SDS011;27787;44.594;11.046;2024-03-02T10:34:30;9.25;;;3.80;;
42124;SDS011;27787;44.594;11.046;2024-03-02T10:37:15;6.05;;;3.25;;
42124;SDS011;27787;44.594;11.046;2024-03-02T10:40:07;5.97;;;3.53;;
42124;SDS011;27787;44.594;11.046;2024-03-02T10:42:53;4.90;;;3.45;;
42124;SDS011;27787;44.594;11.046;2024-03-02T10:45:38;5.60;;;3.50;;
42124;SDS011;27787;44.594;11.046;2024-03-02T10:48:23;5.18;;;3.33;;
42124;SDS011;27787;44.594;11.046;2024-03-02T10:51:11;4.70;;;3.65;;
42124;SDS011;27787;44.594;11.046;2024-03-02T10:53:55;5.93;;;3.58;;
42124;SDS011;27787;44.594;11.046;2024-03-02T10:56:40;5.38;;;3.13;;
42124;SDS011;27787;44.594;11.046;2024-03-02T11:02:09;5.35;;;2.67;;
42124;SDS011;27787;44.594;11.046;2024-03-02T11:04:56;3.47;;;2.70;;
42124;SDS011;27787;44.594;11.046;2024-03-02T11:07:42;4.55;;;2.58;;
42124;SDS011;27787;44.594;11.046;2024-03-02T11:10:28;5.63;;;2.83;;
42124;SDS011;27787;44.594;11.046;2024-03-02T11:13:27;3.72;;;2.70;;
42124;SDS011;27787;44.594;11.046;2024-03-02T11:16:26;4.65;;;2.78;;
42124;SDS011;27787;44.594;11.046;2024-03-02T11:19:19;4.63;;;2.65;;
42124;SDS011;27787;44.594;11.046;2024-03-02T11:22:03;3.55;;;2.10;;
42124;SDS011;27787;44.594;11.046;2024-03-02T11:24:49;3.80;;;2.40;;
42124;SDS011;27787;44.594;11.046;2024-03-02T11:33:24;4.32;;;2.25;;
42124;SDS011;27787;44.594;11.046;2024-03-02T11:36:10;3.97;;;2.22;;
42124;SDS011;27787;44.594;11.046;2024-03-02T11:38:55;3.03;;;2.40;;
42124;SDS011;27787;44.594;11.046;2024-03-02T11:41:39;3.10;;;2.10;;
42124;SDS011;27787;44.594;11.046;2024-03-02T11:44:29;3.63;;;2.00;;
42124;SDS011;27787;44.594;11.046;2024-03-02T11:47:17;2.83;;;1.70;;
42124;SDS011;27787;44.594;11.046;2024-03-02T11:50:01;4.80;;;2.58;;
42124;SDS011;27787;44.594;11.046;2024-03-02T11:52:45;2.90;;;2.15;;
42124;SDS011;27787;44.594;11.046;2024-03-02T11:55:30;3.90;;;2.17;;
42124;SDS011;27787;44.594;11.046;2024-03-02T11:58:15;3.25;;;2.20;;
42124;SDS011;27787;44.594;11.046;2024-03-02T12:01:10;2.95;;;1.90;;
42124;SDS011;27787;44.594;11.046;2024-03-02T12:03:55;3.88;;;2.15;;
42124;SDS011;27787;44.594;11.046;2024-03-02T12:06:42;3.47;;;2.13;;
42124;SDS011;27787;44.594;11.046;2024-03-02T12:09:27;3.95;;;2.17;;
42124;SDS011;27787;44.594;11.046;2024-03-02T12:12:12;4.25;;;2.47;;
42124;SDS011;27787;44.594;11.046;2024-03-02T12:15:01;3.30;;;2.00;;
42124;SDS011;27787;44.594;11.046;2024-03-02T12:17:47;3.28;;;2.05;;
42124;SDS011;27787;44.594;11.046;2024-03-02T12:20:32;3.03;;;1.90;;
42124;SDS011;27787;44.594;11.046;2024-03-02T12:23:17;5.45;;;2.33;;
42124;SDS011;27787;44.594;11.046;2024-03-02T12:26:02;5.28;;;1.90;;
42124;SDS011;27787;44.594;11.046;2024-03-02T12:28:47;7.53;;;2.20;;
42124;SDS011;27787;44.594;11.046;2024-03-02T12:31:32;6.40;;;2.00;;
42124;SDS011;27787;44.594;11.046;2024-03-02T12:34:17;2.92;;;1.90;;
42124;SDS011;27787;44.594;11.046;2024-03-02T12:37:01;8.07;;;2.13;;
42124;SDS011;27787;44.594;11.046;2024-03-02T12:39:45;3.15;;;1.98;;
42124;SDS011;27787;44.594;11.046;2024-03-02T12:42:30;1.80;;;1.40;;
42124;SDS011;27787;44.594;11.046;2024-03-02T12:45:14;4.80;;;2.00;;
42124;SDS011;27787;44.594;11.046;2024-03-02T12:47:59;3.22;;;2.08;;
42124;SDS011;27787;44.594;11.046;2024-03-02T12:50:45;5.30;;;2.95;;
42124;SDS011;27787;44.594;11.046;2024-03-02T12:53:29;3.55;;;2.45;;
42124;SDS011;27787;44.594;11.046;2024-03-02T12:56:13;4.93;;;2.75;;
42124;SDS011;27787;44.594;11.046;2024-03-02T12:58:58;2.75;;;2.17;;
42124;SDS011;27787;44.594;11.046;2024-03-02T13:01:52;3.60;;;2.20;;
42124;SDS011;27787;44.594;11.046;2024-03-02T13:04:38;3.50;;;1.95;;
42124;SDS011;27787;44.594;11.046;2024-03-02T13:07:23;3.13;;;2.05;;
42124;SDS011;27787;44.594;11.046;2024-03-02T13:10:08;3.38;;;1.95;;
42124;SDS011;27787;44.594;11.046;2024-03-02T13:12:52;3.10;;;1.77;;
42124;SDS011;27787;44.594;11.046;2024-03-02T13:15:36;3.00;;;1.88;;
42124;SDS011;27787;44.594;11.046;2024-03-02T13:18:22;2.67;;;1.83;;
42124;SDS011;27787;44.594;11.046;2024-03-02T13:21:06;2.78;;;1.92;;
42124;SDS011;27787;44.594;11.046;2024-03-02T13:23:50;3.67;;;2.20;;
42124;SDS011;27787;44.594;11.046;2024-03-02T13:26:35;2.92;;;2.10;;
42124;SDS011;27787;44.594;11.046;2024-03-02T13:29:19;4.32;;;2.80;;
42124;SDS011;27787;44.594;11.046;2024-03-02T13:32:04;4.40;;;2.42;;
42124;SDS011;27787;44.594;11.046;2024-03-02T13:34:49;3.88;;;2.50;;
42124;SDS011;27787;44.594;11.046;2024-03-02T13:37:33;2.88;;;2.13;;
42124;SDS011;27787;44.594;11.046;2024-03-02T13:40:17;2.25;;;1.80;;
42124;SDS011;27787;44.594;11.046;2024-03-02T13:43:03;3.10;;;1.98;;
42124;SDS011;27787;44.594;11.046;2024-03-02T13:45:48;2.92;;;1.80;;
42124;SDS011;27787;44.594;11.046;2024-03-02T13:48:32;3.38;;;2.05;;
42124;SDS011;27787;44.594;11.046;2024-03-02T13:51:17;3.80;;;2.08;;
42124;SDS011;27787;44.594;11.046;2024-03-02T13:54:01;4.00;;;1.70;;
42124;SDS011;27787;44.594;11.046;2024-03-02T13:56:46;2.47;;;2.20;;
42124;SDS011;27787;44.594;11.046;2024-03-02T13:59:30;4.25;;;2.17;;
42124;SDS011;27787;44.594;11.046;2024-03-02T14:02:14;2.90;;;2.08;;
42124;SDS011;27787;44.594;11.046;2024-03-02T14:04:59;2.85;;;2.25;;
42124;SDS011;27787;44.594;11.046;2024-03-02T14:07:43;3.05;;;2.10;;
42124;SDS011;27787;44.594;11.046;2024-03-02T14:10:28;3.40;;;1.80;;
42124;SDS011;27787;44.594;11.046;2024-03-02T14:13:13;2.58;;;1.58;;
42124;SDS011;27787;44.594;11.046;2024-03-02T14:15:57;4.20;;;2.25;;
42124;SDS011;27787;44.594;11.046;2024-03-02T14:18:42;2.72;;;2.08;;
42124;SDS011;27787;44.594;11.046;2024-03-02T14:21:26;2.63;;;1.80;;
42124;SDS011;27787;44.594;11.046;2024-03-02T14:24:10;2.30;;;1.80;;
42124;SDS011;27787;44.594;11.046;2024-03-02T14:26:54;3.15;;;1.83;;
42124;SDS011;27787;44.594;11.046;2024-03-02T14:29:41;2.42;;;2.00;;
42124;SDS011;27787;44.594;11.046;2024-03-02T14:32:26;3.78;;;2.15;;
42124;SDS011;27787;44.594;11.046;2024-03-02T14:35:10;2.25;;;1.85;;
42124;SDS011;27787;44.594;11.046;2024-03-02T14:37:55;2.72;;;2.10;;
42124;SDS011;27787;44.594;11.046;2024-03-02T14:40:41;3.10;;;2.08;;
42124;SDS011;27787;44.594;11.046;2024-03-02T14:43:25;2.20;;;1.83;;
42124;SDS011;27787;44.594;11.046;2024-03-02T14:46:10;2.60;;;1.85;;
42124;SDS011;27787;44.594;11.046;2024-03-02T14:48:55;2.15;;;1.70;;
42124;SDS011;27787;44.594;11.046;2024-03-02T14:51:39;4.32;;;1.95;;
42124;SDS011;27787;44.594;11.046;2024-03-02T14:54:23;2.35;;;1.98;;
42124;SDS011;27787;44.594;11.046;2024-03-02T14:57:10;2.83;;;2.00;;
42124;SDS011;27787;44.594;11.046;2024-03-02T14:59:55;2.90;;;1.80;;
42124;SDS011;27787;44.594;11.046;2024-03-02T15:02:39;2.00;;;1.80;;
42124;SDS011;27787;44.594;11.046;2024-03-02T15:05:27;4.53;;;1.70;;
42124;SDS011;27787;44.594;11.046;2024-03-02T15:08:11;2.15;;;1.85;;
42124;SDS011;27787;44.594;11.046;2024-03-02T15:10:55;2.70;;;1.85;;
42124;SDS011;27787;44.594;11.046;2024-03-02T15:13:40;2.63;;;1.60;;
42124;SDS011;27787;44.594;11.046;2024-03-02T15:16:24;2.47;;;1.75;;
42124;SDS011;27787;44.594;11.046;2024-03-02T15:19:09;2.67;;;1.80;;
42124;SDS011;27787;44.594;11.046;2024-03-02T15:21:53;1.95;;;1.60;;
42124;SDS011;27787;44.594;11.046;2024-03-02T15:24:37;2.08;;;1.70;;
42124;SDS011;27787;44.594;11.046;2024-03-02T15:27:21;2.53;;;1.90;;
42124;SDS011;27787;44.594;11.046;2024-03-02T15:30:06;2.47;;;1.75;;
42124;SDS011;27787;44.594;11.046;2024-03-02T15:32:50;2.65;;;1.55;;
42124;SDS011;27787;44.594;11.046;2024-03-02T15:35:35;2.42;;;1.67;;
42124;SDS011;27787;44.594;11.046;2024-03-02T15:38:20;1.90;;;1.60;;
42124;SDS011;27787;44.594;11.046;2024-03-02T15:41:04;3.22;;;1.70;;
42124;SDS011;27787;44.594;11.046;2024-03-02T15:43:48;2.58;;;1.75;;
42124;SDS011;27787;44.594;11.046;2024-03-02T15:46:33;2.15;;;1.63;;
42124;SDS011;27787;44.594;11.046;2024-03-02T15:49:18;1.85;;;1.58;;
42124;SDS011;27787;44.594;11.046;2024-03-02T15:52:02;2.28;;;1.60;;
42124;SDS011;27787;44.594;11.046;2024-03-02T15:54:47;1.98;;;1.77;;
42124;SDS011;27787;44.594;11.046;2024-03-02T15:57:34;3.22;;;1.30;;
42124;SDS011;27787;44.594;11.046;2024-03-02T16:00:19;1.73;;;1.50;;
42124;SDS011;27787;44.594;11.046;2024-03-02T16:03:03;3.97;;;1.60;;
42124;SDS011;27787;44.594;11.046;2024-03-02T16:05:47;2.30;;;1.58;;
42124;SDS011;27787;44.594;11.046;2024-03-02T16:08:32;1.95;;;1.40;;
42124;SDS011;27787;44.594;11.046;2024-03-02T16:11:16;1.73;;;1.27;;
42124;SDS011;27787;44.594;11.046;2024-03-02T16:14:00;2.92;;;1.88;;
42124;SDS011;27787;44.594;11.046;2024-03-02T16:16:44;3.70;;;1.50;;
42124;SDS011;27787;44.594;11.046;2024-03-02T16:19:28;1.80;;;1.40;;
42124;SDS011;27787;44.594;11.046;2024-03-02T16:22:12;4.88;;;1.40;;
42124;SDS011;27787;44.594;11.046;2024-03-02T16:24:57;2.03;;;1.40;;
42124;SDS011;27787;44.594;11.046;2024-03-02T16:27:41;2.80;;;1.42;;